createdAt,value
2022-12-29T00:01:30.449Z,2.72
2022-12-29T00:03:57.199Z,2.38
2022-12-29T00:06:24.633Z,2.65
2022-12-29T00:08:51.427Z,2.80
2022-12-29T00:11:21.397Z,2.60
2022-12-29T00:14:07.572Z,2.97
2022-12-29T00:16:36.295Z,2.72
2022-12-29T00:19:04.766Z,2.30
2022-12-29T00:21:50.156Z,2.15
2022-12-29T00:24:27.405Z,2.88
2022-12-29T00:27:21.837Z,2.10
2022-12-29T00:30:12.434Z,1.98
2022-12-29T00:32:58.103Z,1.73
2022-12-29T00:35:30.924Z,2.00
2022-12-29T00:38:23.339Z,2.35
2022-12-29T00:43:56.955Z,1.38
2022-12-29T00:46:24.082Z,1.85
2022-12-29T00:49:12.761Z,1.52
2022-12-29T00:51:39.507Z,1.83
2022-12-29T00:54:14.646Z,1.52
2022-12-29T00:56:44.729Z,1.52
2022-12-29T00:59:12.752Z,1.75
2022-12-29T01:01:40.400Z,1.67
2022-12-29T01:04:07.398Z,1.25
2022-12-29T01:06:35.015Z,2.03
2022-12-29T01:09:22.762Z,1.58
2022-12-29T01:11:50.123Z,1.20
2022-12-29T01:14:18.021Z,1.77
2022-12-29T01:16:45.647Z,1.60
2022-12-29T01:19:13.889Z,1.70
2022-12-29T01:21:41.397Z,1.52
2022-12-29T01:24:08.451Z,1.98
2022-12-29T01:26:38.101Z,1.88
2022-12-29T01:29:13.951Z,1.63
2022-12-29T01:31:41.223Z,1.42
2022-12-29T01:34:09.206Z,1.40
2022-12-29T01:36:45.000Z,1.80
2022-12-29T01:39:14.524Z,1.42
2022-12-29T01:41:43.073Z,1.80
2022-12-29T01:44:53.230Z,1.48
2022-12-29T01:47:46.484Z,1.50
2022-12-29T01:50:19.781Z,1.90
2022-12-29T01:52:58.111Z,1.52
2022-12-29T01:55:31.118Z,1.88
2022-12-29T01:58:01.919Z,1.25
2022-12-29T02:00:28.366Z,1.65
2022-12-29T02:02:55.263Z,1.70
2022-12-29T02:05:33.231Z,1.30
2022-12-29T02:08:04.099Z,1.58
2022-12-29T02:10:33.854Z,1.80
2022-12-29T02:13:00.296Z,1.65
2022-12-29T02:15:49.691Z,1.27
2022-12-29T02:18:41.539Z,1.48
2022-12-29T02:21:24.232Z,1.48
2022-12-29T02:24:27.713Z,1.30
2022-12-29T02:27:12.995Z,1.17
2022-12-29T02:29:51.662Z,1.08
2022-12-29T02:32:42.475Z,1.05
2022-12-29T02:35:34.965Z,1.27
2022-12-29T02:40:46.923Z,1.23
2022-12-29T02:43:50.273Z,1.10
2022-12-29T02:46:21.390Z,2.13
2022-12-29T02:49:04.251Z,1.20
2022-12-29T02:51:40.826Z,1.38
2022-12-29T02:54:26.591Z,1.00
2022-12-29T02:56:56.635Z,0.93
2022-12-29T02:59:23.601Z,1.88
2022-12-29T03:02:38.189Z,1.10
2022-12-29T03:05:32.592Z,1.10
2022-12-29T03:09:18.403Z,1.10
2022-12-29T03:12:11.373Z,1.70
2022-12-29T03:15:21.356Z,0.80
2022-12-29T03:18:06.189Z,1.42
2022-12-29T03:20:40.688Z,1.38
2022-12-29T03:23:08.277Z,1.20
2022-12-29T03:25:40.743Z,1.58
2022-12-29T03:28:23.403Z,1.38
2022-12-29T03:30:50.309Z,1.60
2022-12-29T03:33:22.967Z,1.63
2022-12-29T03:35:52.050Z,1.48
2022-12-29T03:38:29.959Z,1.30
2022-12-29T03:40:59.720Z,1.58
2022-12-29T03:43:28.095Z,1.35
2022-12-29T03:45:54.514Z,1.05
2022-12-29T03:48:21.062Z,1.33
2022-12-29T03:50:47.595Z,1.15
2022-12-29T03:53:14.267Z,1.02
2022-12-29T03:55:40.905Z,1.35
2022-12-29T03:58:07.737Z,1.05
2022-12-29T04:00:34.121Z,1.13
2022-12-29T04:03:01.199Z,1.00
2022-12-29T04:05:27.801Z,0.73
2022-12-29T04:07:56.893Z,1.85
2022-12-29T04:10:24.824Z,0.95
2022-12-29T04:12:51.651Z,0.88
2022-12-29T04:15:17.991Z,0.85
2022-12-29T04:17:45.114Z,0.98
2022-12-29T04:20:33.238Z,1.33
2022-12-29T04:23:07.300Z,1.00
2022-12-29T04:25:34.492Z,1.02
2022-12-29T04:28:01.687Z,1.73
2022-12-29T04:30:28.818Z,1.67
2022-12-29T04:32:56.062Z,1.23
2022-12-29T04:35:22.537Z,1.17
2022-12-29T04:37:49.009Z,1.33
2022-12-29T04:40:18.895Z,1.85
2022-12-29T04:42:45.657Z,1.15
2022-12-29T04:45:12.487Z,1.55
2022-12-29T04:47:40.893Z,2.22
2022-12-29T04:50:08.323Z,1.70
2022-12-29T04:52:35.221Z,1.60
2022-12-29T04:55:02.140Z,2.63
2022-12-29T04:57:31.788Z,1.83
2022-12-29T04:59:58.343Z,1.60
2022-12-29T05:02:25.488Z,1.50
2022-12-29T05:04:52.293Z,1.80
2022-12-29T05:07:19.260Z,1.50
2022-12-29T05:09:46.866Z,1.67
2022-12-29T05:12:13.691Z,2.30
2022-12-29T05:14:40.317Z,1.83
2022-12-29T05:17:06.694Z,1.30
2022-12-29T05:19:37.955Z,2.00
2022-12-29T05:22:05.198Z,2.65
2022-12-29T05:24:31.656Z,2.00
2022-12-29T05:27:03.807Z,2.13
2022-12-29T05:31:56.951Z,2.75
2022-12-29T05:34:23.635Z,1.77
2022-12-29T05:36:50.898Z,1.75
2022-12-29T05:39:17.668Z,2.20
2022-12-29T05:41:53.284Z,2.28
2022-12-29T05:44:23.521Z,1.77
2022-12-29T05:46:49.998Z,2.28
2022-12-29T05:49:17.694Z,2.45
2022-12-29T05:51:45.471Z,2.75
2022-12-29T05:54:12.459Z,2.72
2022-12-29T05:56:39.279Z,2.20
2022-12-29T05:59:05.950Z,2.83
2022-12-29T06:01:32.552Z,2.90
2022-12-29T06:04:00.222Z,3.00
2022-12-29T06:06:27.188Z,2.33
2022-12-29T06:08:54.190Z,2.70
2022-12-29T06:11:20.604Z,1.92
2022-12-29T06:13:47.122Z,2.65
2022-12-29T06:16:13.998Z,2.45
2022-12-29T06:18:40.414Z,2.08
2022-12-29T06:21:07.389Z,2.92
2022-12-29T06:23:33.934Z,2.92
2022-12-29T06:26:00.495Z,2.80
2022-12-29T06:28:26.995Z,2.67
2022-12-29T06:31:16.579Z,3.70
2022-12-29T06:33:48.243Z,2.10
2022-12-29T06:36:28.975Z,3.30
2022-12-29T06:39:06.739Z,2.03
2022-12-29T06:41:33.696Z,2.95
2022-12-29T06:44:02.649Z,3.47
2022-12-29T06:46:29.210Z,2.15
2022-12-29T06:49:01.051Z,1.88
2022-12-29T06:51:27.474Z,2.95
2022-12-29T06:54:00.689Z,2.90
2022-12-29T06:56:27.644Z,2.28
2022-12-29T06:58:54.695Z,2.13
2022-12-29T07:01:21.253Z,2.35
2022-12-29T07:03:51.458Z,3.38
2022-12-29T07:06:17.824Z,2.75
2022-12-29T07:08:44.389Z,3.03
2022-12-29T07:11:11.120Z,2.72
2022-12-29T07:13:40.507Z,3.40
2022-12-29T07:16:12.282Z,2.90
2022-12-29T07:21:20.617Z,3.58
2022-12-29T07:23:47.731Z,2.97
2022-12-29T07:26:20.537Z,3.08
2022-12-29T07:28:48.335Z,2.42
2022-12-29T07:31:17.598Z,3.03
2022-12-29T07:33:45.383Z,2.35
2022-12-29T07:36:13.482Z,1.85
2022-12-29T07:38:40.920Z,2.20
2022-12-29T07:41:07.666Z,2.35
2022-12-29T07:46:56.727Z,2.00
2022-12-29T07:49:25.525Z,2.05
2022-12-29T07:51:52.142Z,2.63
2022-12-29T07:54:22.339Z,2.00
2022-12-29T07:56:48.966Z,1.67
2022-12-29T07:59:18.585Z,2.13
2022-12-29T08:01:45.323Z,2.85
2022-12-29T08:04:12.105Z,2.63
2022-12-29T08:06:40.671Z,2.67
2022-12-29T08:09:16.496Z,1.95
2022-12-29T08:11:46.476Z,3.45
2022-12-29T08:14:14.907Z,3.25
2022-12-29T08:16:41.858Z,3.03
2022-12-29T08:19:08.223Z,4.00
2022-12-29T08:21:35.015Z,2.53
2022-12-29T08:24:01.705Z,2.53
2022-12-29T08:26:29.327Z,3.78
2022-12-29T08:28:56.717Z,2.72
2022-12-29T08:31:26.906Z,3.35
2022-12-29T08:33:53.450Z,2.85
2022-12-29T08:36:44.053Z,2.50
2022-12-29T08:39:11.362Z,2.88
2022-12-29T08:41:40.231Z,3.13
2022-12-29T08:44:09.947Z,2.95
2022-12-29T08:46:36.929Z,2.65
2022-12-29T08:49:05.103Z,2.72
2022-12-29T08:51:31.624Z,3.88
2022-12-29T08:53:58.049Z,3.05
2022-12-29T08:56:32.227Z,3.40
2022-12-29T08:59:08.233Z,2.42
2022-12-29T09:01:37.589Z,3.90
2022-12-29T09:04:16.254Z,2.10
2022-12-29T09:06:44.538Z,2.67
2022-12-29T09:09:11.324Z,3.88
2022-12-29T09:11:43.341Z,3.35
2022-12-29T09:14:12.567Z,4.30
2022-12-29T09:16:39.769Z,2.40
2022-12-29T09:19:06.214Z,4.05
2022-12-29T09:21:32.821Z,3.15
2022-12-29T09:23:59.221Z,3.05
2022-12-29T09:26:33.525Z,2.88
2022-12-29T09:29:00.043Z,3.22
2022-12-29T09:31:26.645Z,2.47
2022-12-29T09:33:54.623Z,2.42
2022-12-29T09:36:28.471Z,3.15
2022-12-29T09:39:04.538Z,2.55
2022-12-29T09:41:40.079Z,2.88
2022-12-29T09:44:22.003Z,3.08
2022-12-29T09:46:54.288Z,1.90
2022-12-29T09:49:36.277Z,2.10
2022-12-29T09:52:41.072Z,2.67
2022-12-29T09:55:36.198Z,1.77
2022-12-29T09:58:14.475Z,2.28
2022-12-29T10:01:03.122Z,3.35
2022-12-29T10:03:46.740Z,2.70
2022-12-29T10:07:28.133Z,2.42
2022-12-29T10:09:49.623Z,2.30
2022-12-29T10:12:47.323Z,2.40
2022-12-29T10:15:36.620Z,2.40
2022-12-29T10:19:04.670Z,2.22
2022-12-29T10:22:14.796Z,2.15
2022-12-29T10:24:46.391Z,2.65
2022-12-29T10:27:16.308Z,2.65
2022-12-29T10:29:56.810Z,2.33
2022-12-29T10:32:29.575Z,2.80
2022-12-29T10:35:24.180Z,2.42
2022-12-29T10:38:05.976Z,2.60
2022-12-29T10:40:44.062Z,3.65
2022-12-29T10:43:30.667Z,4.18
2022-12-29T10:46:04.546Z,3.55
2022-12-29T10:48:37.433Z,3.72
2022-12-29T10:51:08.416Z,2.40
2022-12-29T10:54:05.033Z,4.45
2022-12-29T10:56:36.653Z,3.75
2022-12-29T10:59:17.075Z,3.35
2022-12-29T11:02:12.963Z,3.97
2022-12-29T11:05:09.962Z,3.33
2022-12-29T11:07:37.289Z,3.45
2022-12-29T11:10:31.538Z,2.85
2022-12-29T11:13:26.284Z,4.03
2022-12-29T11:15:53.402Z,4.47
2022-12-29T11:18:27.444Z,5.13
2022-12-29T11:21:02.830Z,4.07
2022-12-29T11:23:36.435Z,3.42
2022-12-29T11:26:22.103Z,4.07
2022-12-29T11:29:23.398Z,4.20
2022-12-29T11:31:53.732Z,6.78
2022-12-29T11:34:26.521Z,3.80
2022-12-29T11:37:00.008Z,4.00
2022-12-29T11:39:34.807Z,4.30
2022-12-29T11:42:03.707Z,5.00
2022-12-29T11:44:39.048Z,4.10
2022-12-29T11:47:10.689Z,4.63
2022-12-29T11:49:37.260Z,3.20
2022-12-29T11:52:06.647Z,3.47
2022-12-29T11:54:37.627Z,3.42
2022-12-29T11:57:15.452Z,6.07
2022-12-29T11:59:56.039Z,5.22
2022-12-29T12:02:42.881Z,4.55
2022-12-29T12:05:15.688Z,4.32
2022-12-29T12:10:24.598Z,4.00
2022-12-29T12:13:11.339Z,3.50
2022-12-29T12:15:47.491Z,2.95
2022-12-29T12:18:26.056Z,4.07
2022-12-29T12:21:00.695Z,3.50
2022-12-29T12:23:48.213Z,4.43
2022-12-29T12:26:15.392Z,3.80
2022-12-29T12:28:59.765Z,4.32
2022-12-29T12:31:41.199Z,4.78
2022-12-29T12:34:17.308Z,4.47
2022-12-29T12:37:01.309Z,4.03
2022-12-29T12:39:45.200Z,3.72
2022-12-29T12:42:23.770Z,3.22
2022-12-29T12:45:25.714Z,4.20
2022-12-29T12:48:32.643Z,3.67
2022-12-29T12:51:42.970Z,2.88
2022-12-29T12:54:22.307Z,2.78
2022-12-29T12:57:03.841Z,2.72
2022-12-29T12:59:45.001Z,3.30
2022-12-29T13:02:29.108Z,3.17
2022-12-29T13:05:26.985Z,2.92
2022-12-29T13:07:56.839Z,3.20
2022-12-29T13:10:53.053Z,3.50
2022-12-29T13:13:57.033Z,2.92
2022-12-29T13:17:00.720Z,4.18
2022-12-29T13:19:39.355Z,3.58
2022-12-29T13:22:17.669Z,2.30
2022-12-29T13:25:21.456Z,2.78
2022-12-29T13:28:40.082Z,2.55
2022-12-29T13:31:30.660Z,2.60
2022-12-29T13:34:22.321Z,2.20
2022-12-29T13:37:05.080Z,1.80
2022-12-29T13:39:39.528Z,3.28
2022-12-29T13:42:06.406Z,2.45
2022-12-29T13:44:38.290Z,3.00
2022-12-29T13:47:16.600Z,4.28
2022-12-29T13:49:44.186Z,2.45
2022-12-29T13:52:25.167Z,2.58
2022-12-29T13:55:25.322Z,3.05
2022-12-29T13:58:04.914Z,1.92
2022-12-29T14:00:44.999Z,2.65
2022-12-29T14:03:30.793Z,3.53
2022-12-29T14:06:25.589Z,3.03
2022-12-29T14:08:58.691Z,4.50
2022-12-29T14:11:32.549Z,3.30
2022-12-29T14:14:01.655Z,4.43
2022-12-29T14:16:33.276Z,3.10
2022-12-29T14:19:13.595Z,3.47
2022-12-29T14:27:14.741Z,2.67
2022-12-29T14:29:50.323Z,3.92
2022-12-29T14:32:28.771Z,2.55
2022-12-29T14:34:57.984Z,2.13
2022-12-29T14:37:41.963Z,2.38
2022-12-29T14:40:34.639Z,1.92
2022-12-29T14:43:12.412Z,1.77
2022-12-29T14:45:53.744Z,1.60
2022-12-29T14:52:33.566Z,1.75
2022-12-29T14:55:18.172Z,1.50
2022-12-29T14:57:54.125Z,1.40
2022-12-29T15:00:37.087Z,1.30
2022-12-29T15:03:10.071Z,2.65
2022-12-29T15:05:49.641Z,1.42
2022-12-29T15:08:26.678Z,2.45
2022-12-29T15:11:21.492Z,2.20
2022-12-29T15:13:52.205Z,2.00
2022-12-29T15:16:40.276Z,2.72
2022-12-29T15:19:25.752Z,2.08
2022-12-29T15:21:53.944Z,2.35
2022-12-29T15:24:21.763Z,2.70
2022-12-29T15:26:52.771Z,3.25
2022-12-29T15:29:41.937Z,2.67
2022-12-29T15:32:17.088Z,3.15
2022-12-29T15:34:48.319Z,3.03
2022-12-29T15:37:32.753Z,3.20
2022-12-29T15:40:02.472Z,3.53
2022-12-29T15:42:50.929Z,3.35
2022-12-29T15:45:17.859Z,3.22
2022-12-29T15:47:50.148Z,2.35
2022-12-29T15:50:25.026Z,3.30
2022-12-29T15:52:52.270Z,3.00
2022-12-29T15:55:39.523Z,3.33
2022-12-29T15:58:18.533Z,2.72
2022-12-29T16:00:49.878Z,2.75
2022-12-29T16:03:18.054Z,2.78
2022-12-29T16:05:52.919Z,4.28
2022-12-29T16:08:25.410Z,4.05
2022-12-29T16:10:55.321Z,3.20
2022-12-29T16:13:29.704Z,2.67
2022-12-29T16:16:03.264Z,3.00
2022-12-29T16:18:38.091Z,3.15
2022-12-29T16:21:35.187Z,3.08
2022-12-29T16:24:14.447Z,3.50
2022-12-29T16:26:48.216Z,3.03
2022-12-29T16:29:15.748Z,4.25
2022-12-29T16:32:01.875Z,2.83
2022-12-29T16:34:40.841Z,3.20
2022-12-29T16:37:38.923Z,2.97
2022-12-29T16:40:38.582Z,2.78
2022-12-29T16:43:05.797Z,4.25
2022-12-29T16:46:00.922Z,2.55
2022-12-29T16:48:30.716Z,2.38
2022-12-29T16:51:30.790Z,2.20
2022-12-29T16:53:58.064Z,3.30
2022-12-29T16:56:44.493Z,3.05
2022-12-29T16:59:43.447Z,2.55
2022-12-29T17:02:20.610Z,2.72
2022-12-29T17:04:49.541Z,2.65
2022-12-29T17:07:18.755Z,3.25
2022-12-29T17:09:45.475Z,3.40
2022-12-29T17:12:19.158Z,2.40
2022-12-29T17:14:53.642Z,2.72
2022-12-29T17:17:31.705Z,2.33
2022-12-29T17:20:03.835Z,1.98
2022-12-29T17:24:59.473Z,3.25
2022-12-29T17:27:38.775Z,2.50
2022-12-29T17:30:17.195Z,2.90
2022-12-29T17:32:52.117Z,3.15
2022-12-29T17:35:21.377Z,2.47
2022-12-29T17:37:49.397Z,2.55
2022-12-29T17:40:22.319Z,3.15
2022-12-29T17:42:53.710Z,2.33
2022-12-29T17:45:29.857Z,3.33
2022-12-29T17:47:57.392Z,3.08
2022-12-29T17:50:26.057Z,3.65
2022-12-29T17:53:00.815Z,2.65
2022-12-29T17:55:36.749Z,2.65
2022-12-29T17:58:18.595Z,3.00
2022-12-29T18:00:46.036Z,2.67
2022-12-29T18:03:18.761Z,2.85
2022-12-29T18:05:45.542Z,3.20
2022-12-29T18:08:12.393Z,2.72
2022-12-29T18:10:39.987Z,2.80
2022-12-29T18:13:07.211Z,2.38
2022-12-29T18:15:36.367Z,2.72
2022-12-29T18:18:14.965Z,2.30
2022-12-29T18:20:43.305Z,2.80
2022-12-29T18:23:20.258Z,3.40
2022-12-29T18:26:13.254Z,2.65
2022-12-29T18:28:40.300Z,3.03
2022-12-29T18:31:16.648Z,3.83
2022-12-29T18:33:43.053Z,3.72
2022-12-29T18:36:12.052Z,3.50
2022-12-29T18:38:38.570Z,3.97
2022-12-29T18:41:05.424Z,3.05
2022-12-29T18:43:31.823Z,3.17
2022-12-29T18:45:58.283Z,3.05
2022-12-29T18:48:24.737Z,3.05
2022-12-29T18:50:52.024Z,3.60
2022-12-29T18:53:24.869Z,3.70
2022-12-29T18:55:52.759Z,3.20
2022-12-29T18:58:22.065Z,3.40
2022-12-29T19:01:00.557Z,4.38
2022-12-29T19:03:31.137Z,3.67
2022-12-29T19:05:58.628Z,3.38
2022-12-29T19:08:29.206Z,3.63
2022-12-29T19:10:55.793Z,3.70
2022-12-29T19:13:38.886Z,3.70
2022-12-29T19:19:05.914Z,3.78
2022-12-29T19:21:39.275Z,4.75
2022-12-29T19:24:06.898Z,5.07
2022-12-29T19:32:29.363Z,4.30
2022-12-29T19:34:55.803Z,3.70
2022-12-29T19:37:24.538Z,3.50
2022-12-29T19:39:50.967Z,3.60
2022-12-29T19:42:17.376Z,3.33
2022-12-29T19:44:43.751Z,3.22
2022-12-29T19:47:10.231Z,4.55
2022-12-29T19:49:36.762Z,4.13
2022-12-29T19:52:05.103Z,4.53
2022-12-29T19:54:31.621Z,5.03
2022-12-29T19:57:36.642Z,5.18
2022-12-29T20:00:04.690Z,4.65
2022-12-29T20:02:33.536Z,4.65
2022-12-29T20:05:02.577Z,4.10
2022-12-29T20:08:01.776Z,3.08
2022-12-29T20:10:28.341Z,4.05
2022-12-29T20:12:54.932Z,4.63
2022-12-29T20:15:21.419Z,4.68
2022-12-29T20:18:15.717Z,4.53
2022-12-29T20:20:41.757Z,6.32
2022-12-29T20:23:08.597Z,4.32
2022-12-29T20:25:44.727Z,4.60
2022-12-29T20:28:13.362Z,3.92
2022-12-29T20:30:40.068Z,4.00
2022-12-29T20:33:08.531Z,4.60
2022-12-29T20:35:36.169Z,5.00
2022-12-29T20:38:02.829Z,4.95
2022-12-29T20:40:31.261Z,4.13
2022-12-29T20:43:02.751Z,3.75
2022-12-29T20:45:38.810Z,5.00
2022-12-29T20:48:05.350Z,4.70
2022-12-29T20:50:42.124Z,5.15
2022-12-29T20:53:15.574Z,4.30
2022-12-29T20:55:48.777Z,4.72
2022-12-29T21:01:18.158Z,4.75
2022-12-29T21:09:23.407Z,4.60
2022-12-29T21:11:51.349Z,5.75
2022-12-29T21:14:17.738Z,4.63
2022-12-29T21:19:28.766Z,5.40
2022-12-29T21:22:01.005Z,6.38
2022-12-29T21:27:01.873Z,5.20
2022-12-29T21:30:15.096Z,6.55
2022-12-29T21:35:17.342Z,4.70
2022-12-29T21:37:44.182Z,3.22
2022-12-29T21:40:10.985Z,4.78
2022-12-29T21:42:51.233Z,3.67
2022-12-29T21:45:30.138Z,4.57
2022-12-29T21:48:21.235Z,5.72
2022-12-29T21:51:28.469Z,4.55
2022-12-29T21:54:36.172Z,3.58
2022-12-29T21:57:03.489Z,3.83
2022-12-29T21:59:48.539Z,5.07
2022-12-29T22:02:42.819Z,4.15
2022-12-29T22:05:33.920Z,4.22
2022-12-29T22:08:20.844Z,3.63
2022-12-29T22:11:07.586Z,4.45
2022-12-29T22:13:39.224Z,5.15
2022-12-29T22:16:08.439Z,3.95
2022-12-29T22:18:35.098Z,5.32
2022-12-29T22:21:06.185Z,4.72
2022-12-29T22:23:32.913Z,4.18
2022-12-29T22:26:07.254Z,3.65
2022-12-29T22:28:41.820Z,5.13
2022-12-29T22:31:21.924Z,4.32
2022-12-29T22:33:48.359Z,3.75
2022-12-29T22:36:14.700Z,4.80
2022-12-29T22:38:41.155Z,3.58
2022-12-29T22:41:09.772Z,3.85
2022-12-29T22:43:36.151Z,3.95
2022-12-29T22:46:16.420Z,3.58
2022-12-29T22:48:54.280Z,5.07
2022-12-29T22:51:28.845Z,3.60
2022-12-29T22:53:55.555Z,3.70
2022-12-29T22:56:26.330Z,4.78
2022-12-29T22:58:58.142Z,3.58
2022-12-29T23:01:28.429Z,3.15
2022-12-29T23:04:10.293Z,3.83
2022-12-29T23:06:51.876Z,3.85
2022-12-29T23:09:20.958Z,3.30
2022-12-29T23:12:04.662Z,2.78
2022-12-29T23:14:37.015Z,3.80
2022-12-29T23:17:03.506Z,3.20
2022-12-29T23:19:29.878Z,4.00
2022-12-29T23:21:56.725Z,3.53
2022-12-29T23:24:28.266Z,4.07
2022-12-29T23:26:55.129Z,3.30
2022-12-29T23:29:29.973Z,3.88
2022-12-29T23:31:56.517Z,4.07
2022-12-29T23:34:23.180Z,4.68
2022-12-29T23:36:52.745Z,3.55
2022-12-29T23:39:23.300Z,4.30
2022-12-29T23:41:50.771Z,3.22
2022-12-29T23:44:17.343Z,2.38
2022-12-29T23:46:46.541Z,3.63
2022-12-29T23:49:13.757Z,3.90
2022-12-29T23:51:40.210Z,3.55
2022-12-29T23:54:06.763Z,3.42
2022-12-29T23:56:33.563Z,3.20
2022-12-29T23:59:04.950Z,2.45
